createdAt,value
2023-01-20T00:02:22.859Z,14.60
2023-01-20T00:04:52.162Z,14.30
2023-01-20T00:07:20.670Z,15.60
2023-01-20T00:09:49.243Z,15.50
2023-01-20T00:12:17.881Z,15.30
2023-01-20T00:14:46.843Z,15.70
2023-01-20T00:17:15.393Z,14.70
2023-01-20T00:19:44.519Z,14.10
2023-01-20T00:22:13.060Z,14.70
2023-01-20T00:24:41.595Z,13.60
2023-01-20T00:27:10.270Z,14.20
2023-01-20T00:29:38.810Z,12.60
2023-01-20T00:32:07.346Z,13.00
2023-01-20T00:34:35.840Z,11.70
2023-01-20T00:37:04.459Z,11.10
2023-01-20T00:39:33.002Z,10.40
2023-01-20T00:42:01.534Z,10.50
2023-01-20T00:44:29.998Z,10.00
2023-01-20T00:46:58.659Z,8.50
2023-01-20T00:49:29.264Z,8.00
2023-01-20T00:51:57.782Z,8.70
2023-01-20T00:54:26.278Z,9.80
2023-01-20T00:56:54.838Z,10.50
2023-01-20T00:59:23.464Z,12.00
2023-01-20T01:01:52.261Z,12.60
2023-01-20T01:04:20.908Z,12.30
2023-01-20T01:06:52.596Z,11.20
2023-01-20T01:09:22.130Z,11.10
2023-01-20T01:11:51.171Z,10.90
2023-01-20T01:14:19.735Z,10.60
2023-01-20T01:16:48.284Z,9.90
2023-01-20T01:19:19.307Z,9.70
2023-01-20T01:21:47.797Z,10.10
2023-01-20T01:24:16.392Z,9.60
2023-01-20T01:26:44.956Z,9.90
2023-01-20T01:29:13.896Z,10.40
2023-01-20T01:31:42.471Z,9.80
2023-01-20T01:34:11.182Z,9.60
2023-01-20T01:36:39.696Z,9.90
2023-01-20T01:39:08.379Z,10.10
2023-01-20T01:41:37.957Z,10.40
2023-01-20T01:44:09.969Z,10.70
2023-01-20T01:46:39.783Z,11.40
2023-01-20T01:49:12.914Z,11.20
2023-01-20T01:52:03.098Z,11.40
2023-01-20T01:54:38.452Z,10.80
2023-01-20T01:57:08.627Z,12.10
2023-01-20T01:59:38.284Z,12.10
2023-01-20T02:02:06.817Z,12.60
2023-01-20T02:04:35.557Z,13.40
2023-01-20T02:07:09.484Z,12.50
2023-01-20T02:09:38.543Z,13.10
2023-01-20T02:12:11.124Z,14.80
2023-01-20T02:14:45.332Z,14.50
2023-01-20T02:17:29.224Z,15.80
2023-01-20T02:20:27.654Z,15.90
2023-01-20T02:23:37.069Z,15.70
2023-01-20T02:26:26.523Z,15.80
2023-01-20T02:29:36.655Z,16.30
2023-01-20T02:32:30.397Z,15.70
2023-01-20T02:35:13.716Z,16.90
2023-01-20T02:37:53.476Z,15.80
2023-01-20T02:40:32.282Z,14.70
2023-01-20T02:43:33.126Z,14.00
2023-01-20T02:46:20.410Z,14.50
2023-01-20T02:49:20.935Z,15.10
2023-01-20T02:51:52.378Z,15.30
2023-01-20T02:54:25.032Z,16.10
2023-01-20T02:56:55.572Z,15.20
2023-01-20T02:59:31.231Z,15.30
2023-01-20T03:02:14.172Z,14.00
2023-01-20T03:05:08.109Z,16.30
2023-01-20T03:07:40.537Z,16.40
2023-01-20T03:10:16.764Z,16.30
2023-01-20T03:13:03.425Z,15.60
2023-01-20T03:15:54.861Z,15.70
2023-01-20T03:18:24.747Z,14.90
2023-01-20T03:20:53.344Z,15.30
2023-01-20T03:23:21.990Z,14.20
2023-01-20T03:25:51.312Z,12.80
2023-01-20T03:28:19.788Z,13.10
2023-01-20T03:30:49.102Z,12.70
2023-01-20T03:33:18.154Z,12.60
2023-01-20T03:35:47.042Z,11.50
2023-01-20T03:38:15.598Z,10.90
2023-01-20T03:41:22.491Z,11.20
2023-01-20T03:43:57.144Z,10.70
2023-01-20T03:46:45.284Z,9.50
2023-01-20T03:49:27.521Z,9.70
2023-01-20T03:52:09.187Z,9.30
2023-01-20T03:54:48.130Z,10.50
2023-01-20T03:57:25.895Z,10.10
2023-01-20T03:59:55.064Z,11.20
2023-01-20T04:02:26.599Z,10.80
2023-01-20T04:04:56.891Z,10.90
2023-01-20T04:07:27.142Z,12.10
2023-01-20T04:10:01.731Z,10.70
2023-01-20T04:12:30.791Z,10.00
2023-01-20T04:15:00.721Z,10.20
2023-01-20T04:17:29.971Z,9.20
2023-01-20T04:20:05.291Z,9.50
2023-01-20T04:22:49.250Z,8.90
2023-01-20T04:25:36.858Z,8.10
2023-01-20T04:28:05.370Z,7.70
2023-01-20T04:30:33.992Z,8.00
2023-01-20T04:33:02.556Z,8.30
2023-01-20T04:35:31.077Z,7.40
2023-01-20T04:37:59.602Z,7.40
2023-01-20T04:40:30.884Z,7.00
2023-01-20T04:42:59.338Z,7.20
2023-01-20T04:45:27.879Z,7.20
2023-01-20T04:47:56.356Z,7.50
2023-01-20T04:50:24.985Z,6.70
2023-01-20T04:52:56.779Z,7.10
2023-01-20T04:55:26.826Z,7.00
2023-01-20T04:57:55.474Z,6.40
2023-01-20T05:00:26.429Z,6.90
2023-01-20T05:02:58.602Z,7.60
2023-01-20T05:05:27.757Z,7.10
2023-01-20T05:07:57.271Z,7.50
2023-01-20T05:10:25.892Z,6.90
2023-01-20T05:12:54.301Z,7.80
2023-01-20T05:15:25.740Z,7.50
2023-01-20T05:17:54.209Z,7.60
2023-01-20T05:20:22.755Z,7.90
2023-01-20T05:22:51.301Z,8.20
2023-01-20T05:25:19.912Z,8.30
2023-01-20T05:27:48.406Z,8.90
2023-01-20T05:30:17.055Z,8.90
2023-01-20T05:32:46.584Z,8.10
2023-01-20T05:35:15.370Z,8.60
2023-01-20T05:37:44.480Z,9.00
2023-01-20T05:40:13.568Z,8.90
2023-01-20T05:42:45.647Z,8.20
2023-01-20T05:45:14.545Z,7.70
2023-01-20T05:47:43.403Z,8.10
2023-01-20T05:50:12.940Z,8.00
2023-01-20T05:52:41.550Z,9.10
2023-01-20T05:55:10.176Z,9.00
2023-01-20T05:57:38.632Z,8.90
2023-01-20T06:00:08.866Z,8.80
2023-01-20T06:02:37.505Z,8.60
2023-01-20T06:05:07.411Z,8.60
2023-01-20T06:07:35.974Z,9.40
2023-01-20T06:10:04.669Z,8.80
2023-01-20T06:12:33.146Z,9.20
2023-01-20T06:15:01.750Z,10.00
2023-01-20T06:17:30.344Z,9.70
2023-01-20T06:20:02.045Z,9.90
2023-01-20T06:22:30.869Z,10.40
2023-01-20T06:24:59.973Z,11.50
2023-01-20T06:27:28.570Z,12.10
2023-01-20T06:29:58.500Z,11.70
2023-01-20T06:32:26.963Z,11.20
2023-01-20T06:34:55.484Z,10.50
2023-01-20T06:37:24.658Z,9.70
2023-01-20T06:39:53.860Z,10.30
2023-01-20T06:42:22.385Z,10.10
2023-01-20T06:44:51.000Z,11.00
2023-01-20T06:47:21.075Z,10.80
2023-01-20T06:49:49.609Z,10.50
2023-01-20T06:52:18.321Z,10.10
2023-01-20T06:54:47.579Z,10.00
2023-01-20T06:57:17.964Z,9.90
2023-01-20T06:59:47.543Z,9.50
2023-01-20T07:02:16.133Z,9.40
2023-01-20T07:04:44.722Z,9.90
2023-01-20T07:07:13.357Z,10.00
2023-01-20T07:09:41.883Z,9.80
2023-01-20T07:12:15.018Z,9.70
2023-01-20T07:18:05.789Z,9.20
2023-01-20T07:20:34.490Z,9.20
2023-01-20T07:23:06.392Z,8.70
2023-01-20T07:25:38.195Z,8.70
2023-01-20T07:28:09.335Z,8.20
2023-01-20T07:30:40.888Z,8.20
2023-01-20T07:33:09.671Z,9.60
2023-01-20T07:35:39.244Z,9.70
2023-01-20T07:38:13.057Z,9.90
2023-01-20T07:40:41.868Z,9.20
2023-01-20T07:43:13.048Z,10.30
2023-01-20T07:45:41.943Z,11.50
2023-01-20T07:48:10.662Z,10.90
2023-01-20T07:50:39.239Z,11.30
2023-01-20T07:53:07.913Z,11.10
2023-01-20T07:55:36.603Z,11.20
2023-01-20T07:58:08.433Z,11.10
2023-01-20T08:00:41.412Z,9.00
2023-01-20T08:03:13.318Z,10.40
2023-01-20T08:05:44.574Z,9.30
2023-01-20T08:08:15.658Z,10.10
2023-01-20T08:10:44.561Z,9.40
2023-01-20T08:13:13.301Z,9.70
2023-01-20T08:15:41.963Z,9.40
2023-01-20T08:18:13.745Z,10.20
2023-01-20T08:20:43.068Z,8.90
2023-01-20T08:23:12.021Z,7.70
2023-01-20T08:25:40.955Z,7.80
2023-01-20T08:28:10.563Z,8.10
2023-01-20T08:30:45.050Z,8.80
2023-01-20T08:33:13.722Z,10.40
2023-01-20T08:35:44.733Z,9.90
2023-01-20T08:38:15.545Z,9.20
2023-01-20T08:40:50.091Z,9.00
2023-01-20T08:43:18.997Z,9.00
2023-01-20T08:45:58.073Z,9.00
2023-01-20T08:48:32.939Z,9.60
2023-01-20T08:51:08.008Z,8.80
2023-01-20T08:53:37.532Z,8.80
2023-01-20T08:56:10.687Z,9.50
2023-01-20T08:58:42.882Z,11.30
2023-01-20T09:01:17.328Z,9.90
2023-01-20T09:03:59.293Z,9.80
2023-01-20T09:06:45.137Z,9.30
2023-01-20T09:09:18.227Z,8.50
2023-01-20T09:11:51.400Z,8.00
2023-01-20T09:14:22.027Z,8.00
2023-01-20T09:16:51.308Z,8.40
2023-01-20T09:19:19.983Z,9.10
2023-01-20T09:21:51.593Z,8.00
2023-01-20T09:24:20.231Z,7.40
2023-01-20T09:26:49.888Z,8.00
2023-01-20T09:29:21.103Z,8.20
2023-01-20T09:31:52.689Z,8.10
2023-01-20T09:34:24.856Z,8.00
2023-01-20T09:36:55.230Z,7.90
2023-01-20T09:39:44.731Z,7.70
2023-01-20T09:42:56.044Z,8.00
2023-01-20T09:45:34.268Z,8.90
2023-01-20T09:48:38.498Z,9.00
2023-01-20T09:51:35.662Z,9.00
2023-01-20T09:54:13.176Z,8.60
2023-01-20T09:56:47.086Z,8.70
2023-01-20T09:59:27.126Z,8.90
2023-01-20T10:02:01.063Z,9.00
2023-01-20T10:04:42.201Z,9.10
2023-01-20T10:07:35.746Z,8.50
2023-01-20T10:10:21.266Z,8.40
2023-01-20T10:13:05.526Z,8.00
2023-01-20T10:15:37.880Z,7.60
2023-01-20T10:18:15.522Z,7.90
2023-01-20T10:20:46.218Z,8.50
2023-01-20T10:23:33.644Z,7.30
2023-01-20T10:26:21.248Z,7.50
2023-01-20T10:29:02.997Z,7.50
2023-01-20T10:31:36.153Z,8.30
2023-01-20T10:34:12.950Z,8.00
2023-01-20T10:36:47.121Z,8.20
2023-01-20T10:39:38.676Z,7.60
2023-01-20T10:42:19.599Z,7.00
2023-01-20T10:44:50.666Z,8.20
2023-01-20T10:47:42.665Z,8.10
2023-01-20T10:50:28.490Z,9.30
2023-01-20T10:53:13.741Z,7.10
2023-01-20T10:56:15.660Z,7.50
2023-01-20T10:58:45.540Z,7.50
2023-01-20T11:01:19.109Z,8.00
2023-01-20T11:03:49.449Z,7.40
2023-01-20T11:06:28.327Z,7.30
2023-01-20T11:08:57.620Z,6.80
2023-01-20T11:11:26.921Z,7.00
2023-01-20T11:13:55.652Z,7.10
2023-01-20T11:16:28.939Z,7.30
2023-01-20T11:19:03.523Z,7.60
2023-01-20T11:21:36.110Z,8.50
2023-01-20T11:24:33.977Z,7.30
2023-01-20T11:27:04.756Z,7.70
2023-01-20T11:29:41.479Z,7.30
2023-01-20T11:32:45.654Z,7.80
2023-01-20T11:35:23.086Z,7.90
2023-01-20T11:37:52.756Z,7.50
2023-01-20T11:40:29.440Z,7.50
2023-01-20T11:42:57.859Z,7.50
2023-01-20T11:45:35.169Z,8.20
2023-01-20T11:48:16.924Z,7.20
2023-01-20T11:50:58.507Z,7.40
2023-01-20T11:53:32.197Z,8.00
2023-01-20T11:56:15.560Z,7.40
2023-01-20T11:58:50.805Z,7.70
2023-01-20T12:01:29.898Z,7.60
2023-01-20T12:04:20.211Z,7.90
2023-01-20T12:07:38.203Z,7.10
2023-01-20T12:10:17.847Z,7.60
2023-01-20T12:12:57.979Z,7.90
2023-01-20T12:15:38.077Z,7.90
2023-01-20T12:18:15.677Z,8.20
2023-01-20T12:20:56.250Z,8.10
2023-01-20T12:23:46.083Z,9.10
2023-01-20T12:26:17.254Z,9.50
2023-01-20T12:29:11.060Z,8.90
2023-01-20T12:31:39.722Z,10.00
2023-01-20T12:34:15.731Z,10.10
2023-01-20T12:36:46.973Z,9.60
2023-01-20T12:39:34.357Z,10.00
2023-01-20T12:42:34.037Z,9.60
2023-01-20T12:45:35.110Z,9.50
2023-01-20T12:48:21.140Z,8.60
2023-01-20T12:50:53.680Z,10.10
2023-01-20T12:53:40.899Z,10.20
2023-01-20T12:56:27.830Z,9.80
2023-01-20T12:59:32.606Z,9.10
2023-01-20T13:02:23.533Z,11.60
2023-01-20T13:05:01.054Z,9.70
2023-01-20T13:07:39.630Z,10.30
2023-01-20T13:10:33.965Z,10.30
2023-01-20T13:13:24.167Z,10.30
2023-01-20T13:16:00.745Z,10.60
2023-01-20T13:18:43.249Z,11.40
2023-01-20T13:21:18.937Z,12.00
2023-01-20T13:23:51.848Z,12.60
2023-01-20T13:28:54.451Z,11.40
2023-01-20T13:31:36.946Z,12.00
2023-01-20T13:34:24.701Z,11.60
2023-01-20T13:37:02.552Z,10.40
2023-01-20T13:39:45.390Z,10.00
2023-01-20T13:42:38.233Z,9.40
2023-01-20T13:45:13.070Z,9.10
2023-01-20T13:47:53.617Z,9.10
2023-01-20T13:50:34.911Z,8.90
2023-01-20T13:53:30.975Z,9.80
2023-01-20T13:56:40.861Z,9.70
2023-01-20T13:59:11.247Z,11.40
2023-01-20T14:01:40.450Z,13.00
2023-01-20T14:04:19.964Z,12.50
2023-01-20T14:06:51.446Z,10.90
2023-01-20T14:09:26.313Z,11.80
2023-01-20T14:11:57.781Z,10.30
2023-01-20T14:14:27.647Z,11.00
2023-01-20T14:16:56.824Z,11.80
2023-01-20T14:19:34.961Z,9.90
2023-01-20T14:22:17.953Z,10.70
2023-01-20T14:24:48.386Z,9.50
2023-01-20T14:27:29.804Z,10.10
2023-01-20T14:30:14.707Z,10.00
2023-01-20T14:32:44.226Z,10.30
2023-01-20T14:35:17.500Z,9.60
2023-01-20T14:37:50.854Z,8.70
2023-01-20T14:40:27.198Z,9.10
2023-01-20T14:43:01.002Z,10.10
2023-01-20T14:45:32.562Z,11.80
2023-01-20T14:48:02.951Z,10.50
2023-01-20T14:50:32.359Z,11.60
2023-01-20T14:53:01.928Z,12.20
2023-01-20T14:55:33.323Z,13.20
2023-01-20T14:58:09.413Z,12.50
2023-01-20T15:00:46.306Z,12.10
2023-01-20T15:03:25.167Z,12.30
2023-01-20T15:06:09.170Z,12.20
2023-01-20T15:08:37.569Z,12.10
2023-01-20T15:11:17.234Z,12.10
2023-01-20T15:13:53.282Z,11.30
2023-01-20T15:16:29.419Z,12.20
2023-01-20T15:19:20.431Z,13.00
2023-01-20T15:21:54.911Z,15.40
2023-01-20T15:24:30.485Z,17.50
2023-01-20T15:27:01.987Z,15.90
2023-01-20T15:29:35.780Z,16.40
2023-01-20T15:32:12.255Z,17.90
2023-01-20T15:34:40.691Z,14.90
2023-01-20T15:37:20.958Z,15.20
2023-01-20T15:39:49.378Z,14.90
2023-01-20T15:42:19.192Z,14.80
2023-01-20T15:44:47.713Z,15.30
2023-01-20T15:47:31.380Z,15.30
2023-01-20T15:49:59.829Z,15.70
2023-01-20T15:52:28.280Z,15.10
2023-01-20T15:54:57.283Z,17.60
2023-01-20T15:57:25.814Z,21.30
2023-01-20T15:59:54.304Z,20.50
2023-01-20T16:02:24.311Z,21.40
2023-01-20T16:04:52.851Z,21.20
2023-01-20T16:07:22.026Z,19.70
2023-01-20T16:09:50.516Z,19.70
2023-01-20T16:12:19.541Z,18.30
2023-01-20T16:14:48.156Z,17.90
2023-01-20T16:17:22.358Z,18.20
2023-01-20T16:19:50.913Z,19.30
2023-01-20T16:22:19.408Z,20.60
2023-01-20T16:24:49.345Z,20.90
2023-01-20T16:27:22.763Z,20.00
2023-01-20T16:29:51.349Z,18.30
2023-01-20T16:32:22.427Z,18.50
2023-01-20T16:34:51.381Z,18.20
2023-01-20T16:37:20.303Z,19.10
2023-01-20T16:39:48.970Z,21.50
2023-01-20T16:42:17.731Z,18.80
2023-01-20T16:44:46.454Z,18.80
2023-01-20T16:47:15.188Z,17.20
2023-01-20T16:49:43.670Z,18.30
2023-01-20T16:52:12.285Z,17.40
2023-01-20T16:54:40.825Z,18.20
2023-01-20T16:57:10.704Z,19.60
2023-01-20T16:59:39.190Z,18.70
2023-01-20T17:02:11.221Z,18.10
2023-01-20T17:04:40.371Z,18.20
2023-01-20T17:07:08.827Z,18.30
2023-01-20T17:09:37.319Z,18.30
2023-01-20T17:12:06.074Z,18.80
2023-01-20T17:14:34.703Z,18.40
2023-01-20T17:17:03.828Z,18.10
2023-01-20T17:19:32.803Z,17.50
2023-01-20T17:22:01.440Z,18.40
2023-01-20T17:24:29.984Z,18.90
2023-01-20T17:26:58.592Z,22.60
2023-01-20T17:29:27.424Z,23.30
2023-01-20T17:31:56.943Z,27.60
2023-01-20T17:34:25.675Z,27.50
2023-01-20T17:36:54.565Z,26.90
2023-01-20T17:39:23.303Z,27.70
2023-01-20T17:41:51.843Z,28.90
2023-01-20T17:44:20.905Z,30.70
2023-01-20T17:46:50.568Z,30.10
2023-01-20T17:49:19.077Z,28.00
2023-01-20T17:51:47.607Z,29.30
2023-01-20T17:54:16.247Z,27.30
2023-01-20T17:56:47.976Z,27.90
2023-01-20T17:59:16.597Z,31.20
2023-01-20T18:01:45.041Z,33.70
2023-01-20T18:04:13.448Z,28.80
2023-01-20T18:06:42.351Z,28.00
2023-01-20T18:09:13.351Z,25.90
2023-01-20T18:11:43.845Z,26.40
2023-01-20T18:14:12.846Z,26.20
2023-01-20T18:16:41.861Z,25.20
2023-01-20T18:19:12.971Z,24.00
2023-01-20T18:21:44.044Z,25.60
2023-01-20T18:24:12.818Z,23.60
2023-01-20T18:26:45.473Z,24.00
2023-01-20T18:29:16.747Z,24.60
2023-01-20T18:31:46.759Z,25.00
2023-01-20T18:34:15.999Z,24.80
2023-01-20T18:36:46.306Z,26.30
2023-01-20T18:39:17.702Z,26.10
2023-01-20T18:41:47.993Z,26.30
2023-01-20T18:44:16.843Z,24.90
2023-01-20T18:46:45.708Z,26.10
2023-01-20T18:49:18.113Z,29.20
2023-01-20T18:51:46.793Z,32.50
2023-01-20T18:54:18.345Z,33.10
2023-01-20T18:56:47.569Z,36.20
2023-01-20T18:59:16.541Z,34.30
2023-01-20T19:01:45.422Z,30.20
2023-01-20T19:04:14.129Z,28.30
2023-01-20T19:06:45.584Z,22.90
2023-01-20T19:09:16.188Z,14.30
2023-01-20T19:11:44.840Z,11.30
2023-01-20T19:14:15.330Z,9.80
2023-01-20T19:16:49.458Z,8.50
2023-01-20T19:19:19.523Z,7.00
2023-01-20T19:21:51.968Z,6.10
2023-01-20T19:24:22.016Z,5.80
2023-01-20T19:26:50.711Z,5.00
2023-01-20T19:29:19.970Z,5.10
2023-01-20T19:31:49.708Z,5.30
2023-01-20T19:34:18.325Z,5.50
2023-01-20T19:36:46.953Z,5.00
2023-01-20T19:39:16.232Z,5.00
2023-01-20T19:41:46.164Z,4.60
2023-01-20T19:44:15.049Z,4.70
2023-01-20T19:46:43.649Z,3.80
2023-01-20T19:49:12.688Z,3.50
2023-01-20T19:51:41.262Z,3.30
2023-01-20T19:54:12.593Z,3.10
2023-01-20T19:56:41.623Z,3.40
2023-01-20T19:59:12.231Z,3.30
2023-01-20T20:01:40.972Z,2.70
2023-01-20T20:04:12.981Z,2.80
2023-01-20T20:06:46.236Z,2.60
2023-01-20T20:09:23.558Z,2.00
2023-01-20T20:11:52.874Z,1.50
2023-01-20T20:14:23.239Z,1.70
2023-01-20T20:16:52.559Z,1.70
2023-01-20T20:19:23.859Z,1.70
2023-01-20T20:21:53.952Z,1.50
2023-01-20T20:24:25.514Z,1.60
2023-01-20T20:26:57.733Z,2.00
2023-01-20T20:29:29.340Z,1.80
2023-01-20T20:32:00.229Z,1.80
2023-01-20T20:34:33.987Z,1.90
2023-01-20T20:37:03.579Z,2.00
2023-01-20T20:39:37.848Z,2.00
2023-01-20T20:42:06.435Z,1.80
2023-01-20T20:44:35.261Z,1.60
2023-01-20T20:47:05.352Z,1.80
2023-01-20T20:49:38.815Z,2.40
2023-01-20T20:52:07.478Z,2.10
2023-01-20T20:54:44.341Z,2.00
2023-01-20T20:57:16.823Z,2.10
2023-01-20T20:59:58.573Z,2.00
2023-01-20T21:02:33.911Z,1.90
2023-01-20T21:05:03.396Z,1.50
2023-01-20T21:07:36.653Z,2.20
2023-01-20T21:10:05.818Z,2.20
2023-01-20T21:12:42.300Z,2.00
2023-01-20T21:15:14.829Z,2.10
2023-01-20T21:17:51.381Z,2.20
2023-01-20T21:20:20.003Z,2.00
2023-01-20T21:22:52.865Z,1.70
2023-01-20T21:25:27.155Z,1.80
2023-01-20T21:28:02.121Z,2.10
2023-01-20T21:30:33.410Z,1.80
2023-01-20T21:33:02.001Z,2.00
2023-01-20T21:35:36.909Z,2.10
2023-01-20T21:38:10.113Z,2.50
2023-01-20T21:40:59.973Z,2.10
2023-01-20T21:43:56.318Z,2.10
2023-01-20T21:46:31.076Z,2.20
2023-01-20T21:49:20.666Z,2.00
2023-01-20T21:52:08.695Z,1.80
2023-01-20T21:54:40.255Z,2.30
2023-01-20T21:57:09.967Z,1.50
2023-01-20T21:59:43.414Z,1.50
2023-01-20T22:02:17.346Z,1.50
2023-01-20T22:04:48.897Z,1.60
2023-01-20T22:07:23.692Z,1.20
2023-01-20T22:09:57.903Z,1.10
2023-01-20T22:12:33.835Z,0.90
2023-01-20T22:15:04.173Z,1.40
2023-01-20T22:17:35.973Z,1.50
2023-01-20T22:20:06.470Z,1.00
2023-01-20T22:22:55.939Z,1.10
2023-01-20T22:25:29.684Z,0.90
2023-01-20T22:27:58.317Z,0.90
2023-01-20T22:30:29.857Z,1.20
2023-01-20T22:33:03.730Z,1.00
2023-01-20T22:35:38.637Z,1.00
2023-01-20T22:38:07.486Z,1.30
2023-01-20T22:40:37.179Z,1.00
2023-01-20T22:43:11.012Z,1.00
2023-01-20T22:45:42.047Z,1.20
2023-01-20T22:48:11.564Z,1.30
2023-01-20T22:50:43.072Z,2.10
2023-01-20T22:53:11.695Z,1.50
2023-01-20T22:55:52.274Z,2.00
2023-01-20T22:58:34.111Z,1.90
2023-01-20T23:01:06.102Z,2.50
2023-01-20T23:03:38.325Z,2.30
2023-01-20T23:06:08.140Z,1.80
2023-01-20T23:08:42.856Z,1.90
2023-01-20T23:11:14.352Z,1.50
2023-01-20T23:13:46.816Z,1.50
2023-01-20T23:16:22.586Z,1.70
2023-01-20T23:18:59.935Z,1.60
2023-01-20T23:21:31.788Z,1.40
2023-01-20T23:24:02.619Z,1.50
2023-01-20T23:26:31.281Z,1.20
2023-01-20T23:29:02.939Z,1.20
2023-01-20T23:31:33.730Z,1.40
2023-01-20T23:34:02.465Z,1.00
2023-01-20T23:36:31.092Z,1.10
2023-01-20T23:39:02.667Z,1.00
2023-01-20T23:41:33.720Z,0.90
2023-01-20T23:44:09.824Z,1.20
2023-01-20T23:46:45.707Z,1.30
2023-01-20T23:49:14.207Z,1.10
2023-01-20T23:51:45.597Z,1.40
2023-01-20T23:54:21.868Z,1.20
2023-01-20T23:57:04.345Z,1.20
2023-01-20T23:59:32.903Z,0.90
